Terminal Aerodrome Forecast
Issued by NWS Boston, MA

Home | Current Version | Previous Version | Text Only | Print | Product List | Glossary On
Versions: 1 2 3 4 5 6 7 8 9 10 11 12 13 14 15 16 17 18 19 20 21 22 23 24 25
000
FTUS41 KBOX 222320
TAFBDL
TAF
KBDL 222320Z 2300/2406 03005KT 3SM -SHRADZ BR OVC008
     FM230400 VRB03KT 1 1/2SM -DZ BR OVC005
     FM230800 00000KT 1/2SM DZ FG VCSH OVC005
     FM231400 VRB03KT 1/4SM +RA FG OVC005 WS020/19045KT
     FM231800 18013G26KT 1/2SM +RA FG OVC005 WS020/19045KT
     FM231900 19012G24KT 1SM -RA BR OVC010 WS020/20040KT
     FM232100 19008KT 3SM BR VCSH OVC020
     FM232300 23007KT P6SM BKN040=

USA.gov is the U.S. government's official web portal to all federal, state and local government web resources and services.